createdAt,value
2016-12-11T00:00:32.643Z,0
2016-12-11T00:01:32.766Z,0
2016-12-11T00:02:32.689Z,0
2016-12-11T00:03:32.680Z,0
2016-12-11T00:04:32.633Z,0
2016-12-11T00:05:32.714Z,0
2016-12-11T00:06:32.718Z,0
2016-12-11T00:07:32.771Z,0
2016-12-11T00:08:32.645Z,0
2016-12-11T00:09:32.733Z,0
2016-12-11T00:10:32.742Z,0
2016-12-11T00:11:32.808Z,0
2016-12-11T00:12:32.722Z,0
2016-12-11T00:13:32.724Z,0
2016-12-11T00:14:32.750Z,0
2016-12-11T00:15:32.851Z,0
2016-12-11T00:16:32.716Z,0
2016-12-11T00:17:32.789Z,0
2016-12-11T00:18:32.690Z,0
2016-12-11T00:19:33.017Z,0
2016-12-11T00:20:32.845Z,0
2016-12-11T00:21:32.835Z,0
2016-12-11T00:22:32.775Z,0
2016-12-11T00:23:32.748Z,0
2016-12-11T00:24:32.749Z,0
2016-12-11T00:25:32.673Z,0
2016-12-11T00:26:32.711Z,0
2016-12-11T00:27:32.765Z,0
2016-12-11T00:28:32.706Z,0
2016-12-11T00:29:32.722Z,0
2016-12-11T00:30:32.732Z,0
2016-12-11T00:31:32.919Z,0
2016-12-11T00:32:32.659Z,0
2016-12-11T00:33:32.699Z,0
2016-12-11T00:34:32.767Z,0
2016-12-11T00:35:32.802Z,0
2016-12-11T00:36:32.719Z,0
2016-12-11T00:37:32.825Z,0
2016-12-11T00:38:32.844Z,0
2016-12-11T00:39:32.649Z,0
2016-12-11T00:40:32.656Z,0
2016-12-11T00:41:32.686Z,0
2016-12-11T00:42:32.733Z,0
2016-12-11T00:43:32.910Z,0
2016-12-11T00:44:32.737Z,0
2016-12-11T00:45:32.756Z,0
2016-12-11T00:46:32.727Z,0
2016-12-11T00:47:32.711Z,0
2016-12-11T00:48:32.596Z,0
2016-12-11T00:49:32.905Z,0
2016-12-11T00:50:32.662Z,0
2016-12-11T00:51:32.797Z,0
2016-12-11T00:52:32.655Z,0
2016-12-11T00:53:32.764Z,0
2016-12-11T00:54:32.638Z,0
2016-12-11T00:55:32.778Z,0
2016-12-11T00:56:32.693Z,0
2016-12-11T00:57:32.755Z,0
2016-12-11T00:58:32.625Z,0
2016-12-11T00:59:32.785Z,0
2016-12-11T01:00:32.644Z,0
2016-12-11T01:01:32.785Z,0
2016-12-11T01:02:32.725Z,0
2016-12-11T01:03:32.814Z,0
2016-12-11T01:04:32.687Z,0
2016-12-11T01:05:32.866Z,0
2016-12-11T01:06:32.861Z,0
2016-12-11T01:07:32.920Z,0
2016-12-11T01:08:32.660Z,0
2016-12-11T01:09:32.755Z,0
2016-12-11T01:10:32.643Z,0
2016-12-11T01:11:32.783Z,0
2016-12-11T01:12:32.626Z,0
2016-12-11T01:13:32.682Z,0
2016-12-11T01:14:32.746Z,0
2016-12-11T01:15:33.697Z,0
2016-12-11T01:16:32.746Z,0
2016-12-11T01:17:32.825Z,0
2016-12-11T01:18:32.669Z,0
2016-12-11T01:19:32.732Z,0
2016-12-11T01:20:32.689Z,0
2016-12-11T01:21:32.680Z,0
2016-12-11T01:22:32.683Z,0
2016-12-11T01:23:32.722Z,0
2016-12-11T01:24:32.718Z,0
2016-12-11T01:25:34.166Z,0
2016-12-11T01:26:32.741Z,0
2016-12-11T01:27:32.820Z,0
2016-12-11T01:28:32.822Z,0
2016-12-11T01:29:32.813Z,0
2016-12-11T01:30:32.732Z,0
2016-12-11T01:31:32.771Z,0
2016-12-11T01:32:33.330Z,0
2016-12-11T01:33:32.753Z,0
2016-12-11T01:34:32.658Z,0
2016-12-11T01:35:32.820Z,0
2016-12-11T01:36:32.731Z,0
2016-12-11T01:37:32.794Z,0
2016-12-11T01:38:32.745Z,0
2016-12-11T01:39:32.772Z,0
2016-12-11T01:40:32.714Z,0
2016-12-11T01:41:32.823Z,0
2016-12-11T01:42:32.672Z,0
2016-12-11T01:43:32.751Z,0
2016-12-11T01:44:32.712Z,0
2016-12-11T01:45:32.799Z,0
2016-12-11T01:46:32.760Z,0
2016-12-11T01:47:32.793Z,0
2016-12-11T01:48:32.673Z,0
2016-12-11T01:49:32.788Z,0
2016-12-11T01:50:32.752Z,0
2016-12-11T01:51:32.792Z,0
2016-12-11T01:52:33.956Z,0
2016-12-11T01:53:32.790Z,0
2016-12-11T01:54:32.733Z,0
2016-12-11T01:55:32.738Z,0
2016-12-11T01:56:32.805Z,0
2016-12-11T01:57:32.815Z,0
2016-12-11T01:58:32.768Z,0
2016-12-11T01:59:32.838Z,0
2016-12-11T02:00:32.713Z,0
2016-12-11T02:01:32.813Z,0
2016-12-11T02:02:32.744Z,0
2016-12-11T02:03:32.824Z,0
2016-12-11T02:04:32.731Z,0
2016-12-11T02:05:32.782Z,0
2016-12-11T02:06:32.745Z,0
2016-12-11T02:07:32.830Z,0
2016-12-11T02:08:32.748Z,0
2016-12-11T02:09:32.749Z,0
2016-12-11T02:10:32.726Z,0
2016-12-11T02:11:32.943Z,0
2016-12-11T02:12:32.705Z,0
2016-12-11T02:13:32.726Z,0
2016-12-11T02:14:32.741Z,0
2016-12-11T02:15:32.739Z,0
2016-12-11T02:16:32.748Z,0
2016-12-11T02:17:32.776Z,0
2016-12-11T02:18:32.767Z,0
2016-12-11T02:19:32.788Z,0
2016-12-11T02:20:32.742Z,0
2016-12-11T02:21:32.857Z,0
2016-12-11T02:22:32.708Z,0
2016-12-11T02:23:34.946Z,0
2016-12-11T02:24:32.744Z,0
2016-12-11T02:25:33.459Z,0
2016-12-11T02:26:33.609Z,0
2016-12-11T02:27:32.868Z,0
2016-12-11T02:28:32.747Z,0
2016-12-11T02:29:32.867Z,0
2016-12-11T02:30:32.791Z,0
2016-12-11T02:31:32.837Z,0
2016-12-11T02:32:32.797Z,0
2016-12-11T02:33:32.842Z,0
2016-12-11T02:34:32.767Z,0
2016-12-11T02:35:32.844Z,0
2016-12-11T02:36:32.815Z,0
2016-12-11T02:37:32.826Z,0
2016-12-11T02:38:32.739Z,0
2016-12-11T02:39:32.761Z,0
2016-12-11T02:40:32.678Z,0
2016-12-11T02:41:32.825Z,0
2016-12-11T02:42:34.218Z,0
2016-12-11T02:43:32.818Z,0
2016-12-11T02:44:32.795Z,0
2016-12-11T02:45:32.786Z,0
2016-12-11T02:46:32.839Z,0
2016-12-11T02:47:32.860Z,0
2016-12-11T02:48:32.776Z,0
2016-12-11T02:49:32.967Z,0
2016-12-11T02:50:32.780Z,0
2016-12-11T02:51:32.808Z,0
2016-12-11T02:52:32.797Z,0
2016-12-11T02:53:32.888Z,0
2016-12-11T02:54:32.795Z,0
2016-12-11T02:55:32.807Z,0
2016-12-11T02:56:32.878Z,0
2016-12-11T02:57:32.887Z,0
2016-12-11T02:58:32.761Z,0
2016-12-11T02:59:33.412Z,0
2016-12-11T03:00:32.799Z,0
2016-12-11T03:01:32.857Z,0
2016-12-11T03:02:32.776Z,0
2016-12-11T03:03:32.827Z,0
2016-12-11T03:04:32.784Z,0
2016-12-11T03:05:32.780Z,0
2016-12-11T03:06:32.823Z,0
2016-12-11T03:07:32.896Z,0
2016-12-11T03:08:32.782Z,0
2016-12-11T03:09:32.827Z,0
2016-12-11T03:10:32.766Z,0
2016-12-11T03:11:32.872Z,0
2016-12-11T03:12:32.753Z,0
2016-12-11T03:13:32.814Z,0
2016-12-11T03:14:32.776Z,0
2016-12-11T03:15:32.936Z,0
2016-12-11T03:16:32.812Z,0
2016-12-11T03:17:32.835Z,0
2016-12-11T03:18:32.795Z,0
2016-12-11T03:19:32.755Z,0
2016-12-11T03:20:32.895Z,0
2016-12-11T03:21:32.826Z,0
2016-12-11T03:22:32.852Z,0
2016-12-11T03:23:33.496Z,0
2016-12-11T03:24:32.806Z,0
2016-12-11T03:25:32.921Z,0
2016-12-11T03:26:32.828Z,0
2016-12-11T03:27:32.878Z,0
2016-12-11T03:28:32.756Z,0
2016-12-11T03:29:32.816Z,0
2016-12-11T03:30:34.065Z,0
2016-12-11T03:31:32.923Z,0
2016-12-11T03:32:32.914Z,0
2016-12-11T03:33:33.794Z,0
2016-12-11T03:34:33.517Z,0
2016-12-11T03:35:32.878Z,0
2016-12-11T03:36:33.543Z,0
2016-12-11T03:37:33.836Z,0
2016-12-11T03:38:33.405Z,0
2016-12-11T03:39:32.886Z,0
2016-12-11T03:40:32.871Z,0
2016-12-11T03:41:32.826Z,0
2016-12-11T03:42:32.836Z,0
2016-12-11T03:43:33.489Z,0
2016-12-11T03:44:33.582Z,0
2016-12-11T03:45:32.901Z,0
2016-12-11T03:46:33.393Z,0
2016-12-11T03:47:33.352Z,0
2016-12-11T03:48:34.064Z,0
2016-12-11T03:49:33.046Z,0
2016-12-11T03:50:33.613Z,0
2016-12-11T03:51:33.543Z,0
2016-12-11T03:52:33.072Z,0
2016-12-11T03:53:33.185Z,0
2016-12-11T03:54:33.070Z,0
2016-12-11T03:55:33.077Z,0
2016-12-11T03:56:33.259Z,0
2016-12-11T03:57:33.202Z,0
2016-12-11T03:58:32.965Z,0
2016-12-11T03:59:33.051Z,0
2016-12-11T04:00:32.940Z,0
2016-12-11T04:01:33.025Z,0
2016-12-11T04:02:34.538Z,0
2016-12-11T04:03:33.085Z,0
2016-12-11T04:04:33.303Z,0
2016-12-11T04:05:33.105Z,0
2016-12-11T04:06:33.106Z,0
2016-12-11T04:07:33.033Z,0
2016-12-11T04:08:33.356Z,0
2016-12-11T04:09:33.045Z,0
2016-12-11T04:10:33.205Z,0
2016-12-11T04:11:33.260Z,0
2016-12-11T04:12:34.089Z,0
2016-12-11T04:13:33.156Z,0
2016-12-11T04:14:33.148Z,0
2016-12-11T04:15:33.117Z,0
2016-12-11T04:16:33.199Z,0
2016-12-11T04:17:33.115Z,0
2016-12-11T04:18:33.120Z,0
2016-12-11T04:19:33.144Z,0
2016-12-11T04:20:33.214Z,0
2016-12-11T04:21:33.268Z,0
2016-12-11T04:22:33.422Z,0
2016-12-11T04:23:33.415Z,0
2016-12-11T04:24:33.248Z,0
2016-12-11T04:25:32.956Z,0
2016-12-11T04:26:33.322Z,0
2016-12-11T04:27:33.134Z,0
2016-12-11T04:28:33.179Z,0
2016-12-11T04:29:33.103Z,0
2016-12-11T04:30:33.223Z,0
2016-12-11T04:31:33.335Z,0
2016-12-11T04:32:32.944Z,0
2016-12-11T04:33:33.101Z,0
2016-12-11T04:34:33.300Z,0
2016-12-11T04:35:33.055Z,0
2016-12-11T04:36:33.219Z,0
2016-12-11T04:37:33.415Z,0
2016-12-11T04:38:32.998Z,0
2016-12-11T04:39:33.376Z,0
2016-12-11T04:40:33.118Z,0
2016-12-11T04:41:33.117Z,0
2016-12-11T04:42:33.044Z,0
2016-12-11T04:43:33.035Z,0
2016-12-11T04:44:32.931Z,0
2016-12-11T04:45:33.113Z,0
2016-12-11T04:46:33.050Z,0
2016-12-11T04:47:33.108Z,0
2016-12-11T04:48:32.950Z,0
2016-12-11T04:49:33.352Z,0
2016-12-11T04:50:33.189Z,0
2016-12-11T04:51:33.445Z,0
2016-12-11T04:52:33.426Z,0
2016-12-11T04:53:33.440Z,0
2016-12-11T04:54:33.034Z,0
2016-12-11T04:55:33.114Z,0
2016-12-11T04:56:33.003Z,0
2016-12-11T04:57:33.149Z,0
2016-12-11T04:58:32.922Z,0
2016-12-11T04:59:33.187Z,0
2016-12-11T05:00:32.945Z,0
2016-12-11T05:01:33.225Z,0
2016-12-11T05:02:33.016Z,0
2016-12-11T05:03:33.124Z,0
2016-12-11T05:04:32.885Z,0
2016-12-11T05:05:32.974Z,0
2016-12-11T05:06:32.947Z,0
2016-12-11T05:07:32.978Z,0
2016-12-11T05:08:32.924Z,0
2016-12-11T05:09:32.959Z,0
2016-12-11T05:10:32.894Z,0
2016-12-11T05:11:34.346Z,0
2016-12-11T05:12:32.951Z,0
2016-12-11T05:13:32.974Z,0
2016-12-11T05:14:32.932Z,0
2016-12-11T05:15:33.055Z,0
2016-12-11T05:16:33.140Z,0
2016-12-11T05:17:32.989Z,0
2016-12-11T05:18:34.214Z,0
2016-12-11T05:19:32.989Z,0
2016-12-11T05:20:32.895Z,0
2016-12-11T05:21:33.004Z,0
2016-12-11T05:22:33.021Z,0
2016-12-11T05:23:33.015Z,0
2016-12-11T05:24:32.940Z,0
2016-12-11T05:25:32.973Z,0
2016-12-11T05:26:33.137Z,0
2016-12-11T05:27:32.922Z,0
2016-12-11T05:28:32.935Z,0
2016-12-11T05:29:33.004Z,0
2016-12-11T05:30:32.982Z,0
2016-12-11T05:31:33.030Z,0
2016-12-11T05:32:32.945Z,0
2016-12-11T05:33:34.357Z,0
2016-12-11T05:34:32.941Z,0
2016-12-11T05:35:33.022Z,0
2016-12-11T05:36:33.000Z,0
2016-12-11T05:37:33.045Z,0
2016-12-11T05:38:32.940Z,0
2016-12-11T05:39:32.972Z,0
2016-12-11T05:40:32.963Z,0
2016-12-11T05:41:32.983Z,0
2016-12-11T05:42:32.957Z,0
2016-12-11T05:43:32.956Z,0
2016-12-11T05:44:32.934Z,0
2016-12-11T05:45:33.053Z,0
2016-12-11T05:46:32.994Z,0
2016-12-11T05:47:33.022Z,0
2016-12-11T05:48:32.972Z,0
2016-12-11T05:49:33.001Z,0
2016-12-11T05:50:33.018Z,0
2016-12-11T05:51:33.039Z,0
2016-12-11T05:52:33.210Z,0
2016-12-11T05:53:33.024Z,0
2016-12-11T05:54:32.953Z,0
2016-12-11T05:55:34.312Z,0
2016-12-11T05:56:32.990Z,0
2016-12-11T05:57:33.041Z,0
2016-12-11T05:58:33.249Z,0
2016-12-11T05:59:33.030Z,0
2016-12-11T06:00:32.982Z,0
2016-12-11T06:01:33.112Z,0
2016-12-11T06:02:33.101Z,0
2016-12-11T06:03:32.959Z,0
2016-12-11T06:04:32.994Z,0
2016-12-11T06:05:33.071Z,0
2016-12-11T06:06:33.033Z,0
2016-12-11T06:07:33.038Z,0
2016-12-11T06:08:33.083Z,0
2016-12-11T06:09:33.090Z,0
2016-12-11T06:10:33.283Z,0
2016-12-11T06:11:33.149Z,0
2016-12-11T06:12:33.238Z,0
2016-12-11T06:13:33.069Z,0
2016-12-11T06:14:33.040Z,0
2016-12-11T06:15:33.001Z,0
2016-12-11T06:16:33.391Z,0
2016-12-11T06:17:33.108Z,0
2016-12-11T06:18:33.012Z,0
2016-12-11T06:19:33.001Z,0
2016-12-11T06:20:33.223Z,0
2016-12-11T06:21:33.185Z,0
2016-12-11T06:22:33.042Z,0
2016-12-11T06:23:33.092Z,0
2016-12-11T06:24:33.027Z,0
2016-12-11T06:25:33.104Z,0
2016-12-11T06:26:33.129Z,0
2016-12-11T06:27:32.992Z,0
2016-12-11T06:28:32.945Z,0
2016-12-11T06:29:33.095Z,0
2016-12-11T06:30:33.013Z,0
2016-12-11T06:31:33.084Z,0
2016-12-11T06:32:33.007Z,0
2016-12-11T06:33:33.128Z,0
2016-12-11T06:34:33.021Z,0
2016-12-11T06:35:33.098Z,0
2016-12-11T06:36:33.109Z,0
2016-12-11T06:37:33.040Z,0
2016-12-11T06:38:33.032Z,0
2016-12-11T06:39:32.959Z,0
2016-12-11T06:40:33.050Z,0
2016-12-11T06:41:33.145Z,0
2016-12-11T06:42:33.276Z,0
2016-12-11T06:43:33.056Z,0
2016-12-11T06:44:33.131Z,0
2016-12-11T06:45:33.104Z,0
2016-12-11T06:46:33.043Z,0
2016-12-11T06:47:33.151Z,0
2016-12-11T06:48:33.026Z,0
2016-12-11T06:49:33.092Z,0
2016-12-11T06:50:33.068Z,0
2016-12-11T06:51:33.139Z,0
2016-12-11T06:52:33.045Z,0
2016-12-11T06:53:33.136Z,0
2016-12-11T06:54:33.231Z,0
2016-12-11T06:55:34.065Z,4
2016-12-11T06:56:33.186Z,4
2016-12-11T06:57:34.189Z,0
2016-12-11T06:58:35.217Z,4
2016-12-11T06:59:33.060Z,4
2016-12-11T07:00:33.073Z,4
2016-12-11T07:01:33.141Z,4
2016-12-11T07:02:33.626Z,4
2016-12-11T07:03:33.085Z,8
2016-12-11T07:04:33.132Z,8
2016-12-11T07:05:33.150Z,12
2016-12-11T07:06:33.304Z,12
2016-12-11T07:07:33.326Z,12
2016-12-11T07:08:33.169Z,16
2016-12-11T07:09:33.070Z,16
2016-12-11T07:10:33.241Z,20
2016-12-11T07:11:33.112Z,24
2016-12-11T07:12:33.056Z,20
2016-12-11T07:13:33.105Z,24
2016-12-11T07:14:33.208Z,28
2016-12-11T07:15:33.061Z,24
2016-12-11T07:16:33.269Z,32
2016-12-11T07:17:33.126Z,36
2016-12-11T07:18:33.041Z,40
2016-12-11T07:19:33.101Z,40
2016-12-11T07:20:33.105Z,44
2016-12-11T07:21:33.137Z,40
2016-12-11T07:22:33.110Z,40
2016-12-11T07:23:33.142Z,44
2016-12-11T07:24:33.072Z,52
2016-12-11T07:25:33.149Z,68
2016-12-11T07:26:33.192Z,76
2016-12-11T07:27:33.152Z,84
2016-12-11T07:28:33.113Z,84
2016-12-11T07:29:33.100Z,92
2016-12-11T07:30:33.379Z,108
2016-12-11T07:31:33.297Z,132
2016-12-11T07:32:33.144Z,152
2016-12-11T07:33:33.153Z,168
2016-12-11T07:34:33.190Z,172
2016-12-11T07:35:33.110Z,176
2016-12-11T07:36:33.319Z,176
2016-12-11T07:37:33.244Z,168
2016-12-11T07:38:33.247Z,176
2016-12-11T07:39:33.170Z,188
2016-12-11T07:40:33.092Z,204
2016-12-11T07:41:33.171Z,220
2016-12-11T07:42:33.215Z,244
2016-12-11T07:43:33.158Z,272
2016-12-11T07:44:33.335Z,288
2016-12-11T07:45:33.115Z,324
2016-12-11T07:46:33.223Z,376
2016-12-11T07:47:33.251Z,404
2016-12-11T07:48:33.183Z,468
2016-12-11T07:49:33.145Z,528
2016-12-11T07:50:33.258Z,520
2016-12-11T07:51:33.334Z,412
2016-12-11T07:52:33.312Z,336
2016-12-11T07:53:33.224Z,316
2016-12-11T07:54:33.251Z,288
2016-12-11T07:55:33.228Z,292
2016-12-11T07:56:33.262Z,300
2016-12-11T07:57:33.195Z,300
2016-12-11T07:58:33.118Z,332
2016-12-11T07:59:33.210Z,284
2016-12-11T08:00:33.454Z,364
2016-12-11T08:01:33.233Z,376
2016-12-11T08:02:33.309Z,380
2016-12-11T08:03:33.221Z,300
2016-12-11T08:04:33.291Z,312
2016-12-11T08:05:33.215Z,308
2016-12-11T08:06:33.271Z,244
2016-12-11T08:07:33.308Z,220
2016-12-11T08:08:33.261Z,236
2016-12-11T08:09:33.262Z,260
2016-12-11T08:10:33.334Z,276
2016-12-11T08:11:33.298Z,356
2016-12-11T08:12:33.342Z,432
2016-12-11T08:13:33.214Z,556
2016-12-11T08:14:33.210Z,636
2016-12-11T08:15:33.212Z,652
2016-12-11T08:16:33.369Z,704
2016-12-11T08:17:33.232Z,708
2016-12-11T08:18:33.390Z,664
2016-12-11T08:19:33.191Z,588
2016-12-11T08:20:33.326Z,500
2016-12-11T08:21:33.280Z,448
2016-12-11T08:22:33.493Z,432
2016-12-11T08:23:33.236Z,396
2016-12-11T08:24:33.457Z,436
2016-12-11T08:25:33.373Z,456
2016-12-11T08:26:33.439Z,612
2016-12-11T08:27:33.242Z,768
2016-12-11T08:28:33.378Z,904
2016-12-11T08:29:33.337Z,1036
2016-12-11T08:30:33.439Z,1292
2016-12-11T08:31:33.495Z,1292
2016-12-11T08:32:33.500Z,1464
2016-12-11T08:33:33.262Z,1564
2016-12-11T08:34:33.294Z,1400
2016-12-11T08:35:33.292Z,1300
2016-12-11T08:36:33.400Z,1348
2016-12-11T08:37:33.271Z,1184
2016-12-11T08:38:33.438Z,1212
2016-12-11T08:39:33.199Z,1116
2016-12-11T08:40:33.367Z,828
2016-12-11T08:41:33.282Z,884
2016-12-11T08:42:33.325Z,956
2016-12-11T08:43:33.259Z,1248
2016-12-11T08:44:33.375Z,1288
2016-12-11T08:45:33.255Z,1424
2016-12-11T08:46:33.324Z,1352
2016-12-11T08:47:33.260Z,1328
2016-12-11T08:48:33.247Z,1140
2016-12-11T08:49:33.238Z,1228
2016-12-11T08:50:33.472Z,1388
2016-12-11T08:51:33.250Z,1056
2016-12-11T08:52:33.316Z,1520
2016-12-11T08:53:33.255Z,1416
2016-12-11T08:54:33.248Z,944
2016-12-11T08:55:33.266Z,800
2016-12-11T08:56:33.442Z,896
2016-12-11T08:57:33.222Z,1056
2016-12-11T08:58:33.542Z,912
2016-12-11T08:59:33.299Z,776
2016-12-11T09:00:33.651Z,764
2016-12-11T09:01:33.498Z,904
2016-12-11T09:02:33.556Z,1220
2016-12-11T09:03:33.305Z,1364
2016-12-11T09:04:33.638Z,1100
2016-12-11T09:05:33.490Z,1068
2016-12-11T09:06:33.456Z,1004
2016-12-11T09:07:33.463Z,2180
2016-12-11T09:08:33.520Z,2220
2016-12-11T09:09:33.302Z,1636
2016-12-11T09:10:33.503Z,1320
2016-12-11T09:11:33.522Z,1312
2016-12-11T09:12:33.934Z,1440
2016-12-11T09:13:33.557Z,1548
2016-12-11T09:14:33.299Z,1624
2016-12-11T09:15:33.301Z,1728
2016-12-11T09:16:33.482Z,1864
2016-12-11T09:17:33.356Z,2088
2016-12-11T09:18:33.591Z,2028
2016-12-11T09:19:33.379Z,1988
2016-12-11T09:20:33.524Z,2104
2016-12-11T09:21:33.408Z,1984
2016-12-11T09:22:33.569Z,1964
2016-12-11T09:23:33.534Z,1776
2016-12-11T09:24:33.525Z,2048
2016-12-11T09:25:33.457Z,2868
2016-12-11T09:26:33.461Z,3596
2016-12-11T09:27:33.430Z,4248
2016-12-11T09:28:33.534Z,4172
2016-12-11T09:29:33.473Z,4740
2016-12-11T09:30:33.457Z,5348
2016-12-11T09:31:33.499Z,6124
2016-12-11T09:32:33.688Z,7216
2016-12-11T09:33:33.353Z,7696
2016-12-11T09:34:33.333Z,7332
2016-12-11T09:35:33.436Z,4420
2016-12-11T09:36:33.653Z,3076
2016-12-11T09:37:33.383Z,2424
2016-12-11T09:38:33.481Z,2464
2016-12-11T09:39:33.330Z,2536
2016-12-11T09:40:33.519Z,2220
2016-12-11T09:41:33.392Z,1988
2016-12-11T09:42:33.576Z,2060
2016-12-11T09:43:33.285Z,2332
2016-12-11T09:44:33.716Z,3096
2016-12-11T09:45:33.512Z,2620
2016-12-11T09:46:33.441Z,2532
2016-12-11T09:47:33.352Z,2776
2016-12-11T09:48:33.525Z,3216
2016-12-11T09:49:33.459Z,2652
2016-12-11T09:50:33.433Z,3168
2016-12-11T09:51:33.683Z,3492
2016-12-11T09:52:33.714Z,3516
2016-12-11T09:53:34.422Z,4016
2016-12-11T09:54:33.540Z,3740
2016-12-11T09:55:33.535Z,2912
2016-12-11T09:56:33.610Z,2812
2016-12-11T09:57:33.530Z,4348
2016-12-11T09:58:33.619Z,5680
2016-12-11T09:59:33.517Z,5376
2016-12-11T10:00:33.878Z,4608
2016-12-11T10:01:33.476Z,3176
2016-12-11T10:02:33.624Z,2768
2016-12-11T10:03:33.553Z,3688
2016-12-11T10:04:33.474Z,3968
2016-12-11T10:05:33.501Z,4732
2016-12-11T10:06:33.621Z,4192
2016-12-11T10:07:33.394Z,3720
2016-12-11T10:08:33.548Z,4692
2016-12-11T10:09:33.365Z,3412
2016-12-11T10:10:33.683Z,2964
2016-12-11T10:11:33.537Z,3552
2016-12-11T10:12:33.634Z,3612
2016-12-11T10:13:33.451Z,3768
2016-12-11T10:14:33.482Z,4340
2016-12-11T10:15:33.456Z,3568
2016-12-11T10:16:33.648Z,3080
2016-12-11T10:17:33.493Z,2888
2016-12-11T10:18:33.541Z,3128
2016-12-11T10:19:33.413Z,3200
2016-12-11T10:20:33.655Z,3532
2016-12-11T10:21:33.553Z,3260
2016-12-11T10:22:33.578Z,2808
2016-12-11T10:23:33.539Z,2440
2016-12-11T10:24:33.723Z,2208
2016-12-11T10:25:33.462Z,1836
2016-12-11T10:26:33.653Z,1568
2016-12-11T10:27:33.578Z,1388
2016-12-11T10:28:33.752Z,1332
2016-12-11T10:29:33.477Z,1460
2016-12-11T10:30:33.508Z,1612
2016-12-11T10:31:33.451Z,1716
2016-12-11T10:32:33.597Z,1728
2016-12-11T10:33:33.552Z,1508
2016-12-11T10:34:33.575Z,1500
2016-12-11T10:35:33.432Z,1484
2016-12-11T10:36:33.668Z,1388
2016-12-11T10:37:33.423Z,1556
2016-12-11T10:38:33.720Z,1264
2016-12-11T10:39:33.708Z,1280
2016-12-11T10:40:33.754Z,1796
2016-12-11T10:41:34.463Z,2036
2016-12-11T10:42:33.753Z,1832
2016-12-11T10:43:35.142Z,1536
2016-12-11T10:44:33.729Z,1420
2016-12-11T10:45:33.579Z,1260
2016-12-11T10:46:33.774Z,1252
2016-12-11T10:47:33.648Z,1004
2016-12-11T10:48:33.834Z,804
2016-12-11T10:49:33.593Z,976
2016-12-11T10:50:33.830Z,1308
2016-12-11T10:51:33.860Z,1636
2016-12-11T10:52:33.642Z,2040
2016-12-11T10:53:33.718Z,2288
2016-12-11T10:54:33.658Z,2536
2016-12-11T10:55:34.319Z,2600
2016-12-11T10:56:33.679Z,2216
2016-12-11T10:57:33.654Z,2504
2016-12-11T10:58:33.641Z,2956
2016-12-11T10:59:33.556Z,2896
2016-12-11T11:00:33.514Z,2804
2016-12-11T11:01:33.467Z,2792
2016-12-11T11:02:33.606Z,2184
2016-12-11T11:03:33.622Z,2548
2016-12-11T11:04:33.916Z,2804
2016-12-11T11:05:33.494Z,3072
2016-12-11T11:06:34.215Z,3448
2016-12-11T11:07:33.429Z,3436
2016-12-11T11:08:33.649Z,3440
2016-12-11T11:09:33.561Z,2792
2016-12-11T11:10:33.678Z,2852
2016-12-11T11:11:33.681Z,3608
2016-12-11T11:12:34.380Z,3020
2016-12-11T11:13:33.569Z,3252
2016-12-11T11:14:33.890Z,2652
2016-12-11T11:15:33.622Z,2560
2016-12-11T11:16:33.663Z,3488
2016-12-11T11:17:33.673Z,3548
2016-12-11T11:18:33.578Z,4628
2016-12-11T11:19:33.458Z,2220
2016-12-11T11:20:33.633Z,2288
2016-12-11T11:21:33.742Z,2792
2016-12-11T11:22:34.318Z,3288
2016-12-11T11:23:33.495Z,4120
2016-12-11T11:24:33.626Z,6308
2016-12-11T11:25:33.604Z,8184
2016-12-11T11:26:33.756Z,7244
2016-12-11T11:27:33.536Z,8896
2016-12-11T11:28:33.683Z,7860
2016-12-11T11:29:33.588Z,6384
2016-12-11T11:30:33.745Z,7340
2016-12-11T11:31:33.692Z,9392
2016-12-11T11:32:33.680Z,10888
2016-12-11T11:33:33.680Z,8484
2016-12-11T11:34:33.656Z,6912
2016-12-11T11:35:33.593Z,4040
2016-12-11T11:36:33.742Z,5512
2016-12-11T11:37:33.661Z,7220
2016-12-11T11:38:33.772Z,6208
2016-12-11T11:39:33.642Z,6108
2016-12-11T11:40:33.677Z,5376
2016-12-11T11:41:33.581Z,4856
2016-12-11T11:42:33.727Z,4328
2016-12-11T11:43:33.595Z,3444
2016-12-11T11:44:33.752Z,3316
2016-12-11T11:45:33.791Z,4396
2016-12-11T11:46:33.836Z,4536
2016-12-11T11:47:33.616Z,3492
2016-12-11T11:48:33.756Z,3024
2016-12-11T11:49:33.486Z,3588
2016-12-11T11:50:33.505Z,5304
2016-12-11T11:51:33.660Z,6824
2016-12-11T11:52:33.647Z,5780
2016-12-11T11:53:33.618Z,3824
2016-12-11T11:54:33.560Z,2844
2016-12-11T11:55:33.570Z,2456
2016-12-11T11:56:33.691Z,3312
2016-12-11T11:57:33.607Z,5676
2016-12-11T11:58:33.754Z,3656
2016-12-11T11:59:33.601Z,3316
2016-12-11T12:00:33.852Z,3472
2016-12-11T12:01:33.702Z,7860
2016-12-11T12:02:34.661Z,9412
2016-12-11T12:03:33.608Z,6000
2016-12-11T12:04:33.715Z,7088
2016-12-11T12:05:33.824Z,9884
2016-12-11T12:06:33.753Z,10516
2016-12-11T12:07:33.613Z,6416
2016-12-11T12:08:33.734Z,5208
2016-12-11T12:09:33.900Z,5928
2016-12-11T12:10:33.708Z,4248
2016-12-11T12:11:36.234Z,3808
2016-12-11T12:12:33.704Z,3568
2016-12-11T12:13:33.789Z,3576
2016-12-11T12:14:33.695Z,3568
2016-12-11T12:15:33.744Z,3660
2016-12-11T12:16:33.805Z,3216
2016-12-11T12:17:33.658Z,3628
2016-12-11T12:18:33.713Z,4184
2016-12-11T12:19:33.551Z,4668
2016-12-11T12:20:33.791Z,5132
2016-12-11T12:21:33.661Z,4064
2016-12-11T12:22:33.753Z,2920
2016-12-11T12:23:33.598Z,2008
2016-12-11T12:24:33.810Z,3632
2016-12-11T12:25:33.737Z,5428
2016-12-11T12:26:33.806Z,4184
2016-12-11T12:27:33.623Z,4356
2016-12-11T12:28:34.491Z,5828
2016-12-11T12:29:33.678Z,6288
2016-12-11T12:30:33.704Z,5468
2016-12-11T12:31:33.739Z,4464
2016-12-11T12:32:33.740Z,3208
2016-12-11T12:33:33.590Z,2416
2016-12-11T12:34:34.670Z,1756
2016-12-11T12:35:33.838Z,2216
2016-12-11T12:36:33.799Z,2652
2016-12-11T12:37:33.712Z,1940
2016-12-11T12:38:33.725Z,2204
2016-12-11T12:39:34.011Z,2404
2016-12-11T12:40:33.848Z,3260
2016-12-11T12:41:34.991Z,3668
2016-12-11T12:42:33.899Z,3976
2016-12-11T12:43:33.702Z,5160
2016-12-11T12:44:33.703Z,6704
2016-12-11T12:45:33.624Z,8616
2016-12-11T12:46:33.631Z,8956
2016-12-11T12:47:33.649Z,7068
2016-12-11T12:48:33.775Z,4440
2016-12-11T12:49:33.785Z,2960
2016-12-11T12:50:33.734Z,2492
2016-12-11T12:51:33.822Z,2460
2016-12-11T12:52:33.741Z,2328
2016-12-11T12:53:33.704Z,2240
2016-12-11T12:54:33.815Z,2572
2016-12-11T12:55:33.680Z,2568
2016-12-11T12:56:33.723Z,2820
2016-12-11T12:57:33.569Z,3840
2016-12-11T12:58:33.642Z,3900
2016-12-11T12:59:33.593Z,3088
2016-12-11T13:00:33.772Z,3740
2016-12-11T13:01:33.619Z,4988
2016-12-11T13:02:33.818Z,5532
2016-12-11T13:03:33.717Z,5816
2016-12-11T13:04:33.807Z,5384
2016-12-11T13:05:33.770Z,4640
2016-12-11T13:06:33.708Z,3932
2016-12-11T13:07:33.692Z,3388
2016-12-11T13:08:33.808Z,3476
2016-12-11T13:09:33.652Z,4420
2016-12-11T13:10:33.851Z,4612
2016-12-11T13:11:36.509Z,4344
2016-12-11T13:12:33.793Z,4300
2016-12-11T13:13:33.718Z,4176
2016-12-11T13:14:33.667Z,4512
2016-12-11T13:15:33.713Z,5820
2016-12-11T13:16:33.823Z,8524
2016-12-11T13:17:33.664Z,10756
2016-12-11T13:18:33.864Z,11024
2016-12-11T13:19:33.615Z,11440
2016-12-11T13:20:33.613Z,11288
2016-12-11T13:21:33.654Z,11292
2016-12-11T13:22:33.866Z,11824
2016-12-11T13:23:33.857Z,13204
2016-12-11T13:24:33.775Z,12188
2016-12-11T13:25:33.653Z,11304
2016-12-11T13:26:33.836Z,11648
2016-12-11T13:27:33.822Z,11148
2016-12-11T13:28:33.751Z,11736
2016-12-11T13:29:33.756Z,12288
2016-12-11T13:30:33.767Z,11796
2016-12-11T13:31:33.712Z,10536
2016-12-11T13:32:33.843Z,9172
2016-12-11T13:33:33.658Z,8200
2016-12-11T13:34:33.792Z,7864
2016-12-11T13:35:33.667Z,8116
2016-12-11T13:36:33.817Z,7112
2016-12-11T13:37:33.671Z,6452
2016-12-11T13:38:33.756Z,5792
2016-12-11T13:39:33.714Z,5768
2016-12-11T13:40:34.050Z,5644
2016-12-11T13:41:33.799Z,4968
2016-12-11T13:42:33.860Z,4936
2016-12-11T13:43:33.785Z,4612
2016-12-11T13:44:33.842Z,4364
2016-12-11T13:45:33.669Z,3556
2016-12-11T13:46:33.882Z,3068
2016-12-11T13:47:33.847Z,2676
2016-12-11T13:48:33.885Z,2536
2016-12-11T13:49:33.734Z,2372
2016-12-11T13:50:36.335Z,2252
2016-12-11T13:51:33.788Z,2140
2016-12-11T13:52:33.843Z,2172
2016-12-11T13:53:33.666Z,2432
2016-12-11T13:54:33.909Z,2672
2016-12-11T13:55:33.771Z,2612
2016-12-11T13:56:33.764Z,2524
2016-12-11T13:57:33.824Z,2496
2016-12-11T13:58:33.854Z,2304
2016-12-11T13:59:33.839Z,2116
2016-12-11T14:00:33.969Z,1932
2016-12-11T14:01:33.804Z,1656
2016-12-11T14:02:33.855Z,1324
2016-12-11T14:03:33.803Z,1128
2016-12-11T14:04:33.877Z,964